Terminal Aerodrome Forecast
Issued by NWS

Home | Current Version | Previous Version | Text Only | Print | Product List | Glossary On
Versions: 1 2 3 4 5 6 7 8 9 10 11 12 13 14 15 16 17 18 19 20 21 22 23 24 25 26 27 28 29 30 31
000
FTAK31 PANC 222322
TAFADL
TAF
PADL 222322Z 2300/2324 19010KT P6SM -SHRA SCT008 OVC025
     FM231500 20005KT 5SM BR OVC008
     FM231800 21007KT P6SM SCT008 OVC015
     FM232100 21007KT P6SM SCT020 BKN035=

USA.gov is the U.S. government's official web portal to all federal, state and local government web resources and services.